Terminal Aerodrome Forecast
Issued by NWS El Paso, TX

Home | Current Version | Previous Version | Text Only | Print | Product List | Glossary On
Versions: 1 2 3 4 5 6 7 8 9 10 11 12 13
000
FTUS44 KEPZ 251801 CCA
TAFELP
TAF COR
KELP 251801Z 2518/2618 25033G44KT P6SM SCT090 SCT250
      TEMPO 2519/2523 25038G50KT 1SM BLDU
     FM260900 27022G33KT P6SM FEW250
     FM261200 32012KT P6SM SKC=

USA.gov is the U.S. government's official web portal to all federal, state and local government web resources and services.